ORBI/SDA METAR and TAF weather

Enter ICAO airport designator
Station Type Date Time Source
ORBI METAR 2021/09/24 06:00 UTC NOAA

ORBI 240600Z 30013KT CAVOK 29/14 Q1007 NOSIG


Station Type Date Time Source
ORBI Decoded METAR 2021/09/24 06:00 UTC NOAA

Station name not available
Sep 24, 2021 - 02:00 AM EDT / 2021.09.24 0600 UTC
Wind: from the WNW (300 degrees) at 15 MPH (13 KT):0
Visibility: greater than 7 mile(s):0
Temperature: 84 F (29 C)
Dew Point: 57 F (14 C)
Relative Humidity: 39%
Pressure (altimeter): 29.74 in. Hg (1007 hPa)
ob: ORBI 240600Z 30013KT CAVOK 29/14 Q1007 NOSIG
cycle: 6

Station Type Date Time Source
ORBI TAF 2021/09/24 06:35 UTC NOAA

TAF ORBI 240400Z 2406/2506 32008KT 8000 NSC
TEMPO 2409/2414 10G20KT

Example: see airport list